Time;durP1;ratioP1;P1;durP2;ratioP2;P2;SDS_P1;SDS_P2;PMS_P1;PMS_P2;Temp;Humidity;BMP_temperature;BMP_pressure;BME280_temperature;BME280_humidity;BME280_pressure;Samples;Min_cycle;Max_cycle;Signal;HPM_P1;HPM_P2
2022/02/23 00:01:02;;;;;;;6.00;2.00;;;;;;;-0.04;95.80;98829.34;5044679;28;20033;-71
2022/02/23 00:03:27;;;;;;;5.63;2.42;;;;;;;-0.03;95.78;98834.47;5062751;28;20028;-72
2022/02/23 00:05:52;;;;;;;7.45;2.53;;;;;;;0.03;95.81;98843.88;5062717;28;20021;-71
2022/02/23 00:08:18;;;;;;;5.80;2.35;;;;;;;0.07;95.75;98844.75;5062751;28;20056;-71
2022/02/23 00:10:43;;;;;;;4.68;2.65;;;;;;;0.08;95.91;98847.31;5063150;28;20060;-71
2022/02/23 00:13:09;;;;;;;5.90;3.53;;;;;;;0.12;95.87;98860.97;5066252;28;20084;-70
2022/02/23 00:15:34;;;;;;;8.00;3.60;;;;;;;0.14;95.80;98866.94;5065871;28;20115;-70
2022/02/23 00:17:59;;;;;;;12.25;4.95;;;;;;;0.06;95.74;98863.47;5066272;28;20021;-71
2022/02/23 00:20:25;;;;;;;13.38;5.50;;;;;;;0.11;95.72;98889.91;5066195;28;20021;-72
2022/02/23 00:22:50;;;;;;;14.23;5.70;;;;;;;0.08;95.72;98887.31;5066092;28;20054;-73
2022/02/23 00:25:16;;;;;;;14.48;5.53;;;;;;;0.03;95.77;98888.94;5065980;28;20021;-72
2022/02/23 00:27:42;;;;;;;16.55;5.90;;;;;;;0.04;95.71;98890.66;5065936;28;20512;-74
2022/02/23 00:30:08;;;;;;;7.72;3.35;;;;;;;0.02;96.00;98912.78;5047613;28;20097;-73
2022/02/23 00:32:34;;;;;;;9.63;5.10;;;;;;;0.03;95.82;98914.47;5066019;28;20021;-72
2022/02/23 00:34:59;;;;;;;10.38;4.25;;;;;;;0.05;96.01;98940.88;5065683;28;20037;-72
2022/02/23 00:37:26;;;;;;;8.05;3.65;;;;;;;0.06;95.88;98940.03;5065855;28;20473;-72
2022/02/23 00:39:51;;;;;;;9.52;4.05;;;;;;;0.01;95.83;98955.28;5065658;28;20028;-72
2022/02/23 00:42:17;;;;;;;11.57;4.90;;;;;;;0.05;95.90;98954.47;5047849;28;20031;-72
2022/02/23 00:44:42;;;;;;;5.82;3.53;;;;;;;0.04;95.88;98988.50;5065514;28;20085;-72
2022/02/23 00:47:10;;;;;;;8.27;4.13;;;;;;;-0.01;96.00;98969.72;5065235;28;20021;-72
2022/02/23 00:49:35;;;;;;;10.13;4.82;;;;;;;0.08;96.09;98995.34;5047315;28;20108;-73
2022/02/23 00:52:03;;;;;;;10.25;4.40;;;;;;;0.13;96.09;99002.19;5065835;28;20029;-72
2022/02/23 00:54:28;;;;;;;9.30;4.55;;;;;;;0.11;96.11;99004.75;5047616;28;20090;-72
2022/02/23 00:56:54;;;;;;;7.88;3.90;;;;;;;0.11;95.99;99005.56;5065657;28;20025;-73
2022/02/23 00:59:20;;;;;;;11.05;4.50;;;;;;;0.18;95.97;99021.81;5065372;28;20029;-72
2022/02/23 01:01:45;;;;;;;7.90;4.00;;;;;;;0.21;96.16;99021.84;5065212;28;20040;-72
2022/02/23 01:04:10;;;;;;;7.88;4.00;;;;;;;0.24;96.18;99027.00;5065419;28;20116;-72
2022/02/23 01:06:35;;;;;;;15.95;4.80;;;;;;;0.27;96.25;99030.44;5065219;28;20025;-72
2022/02/23 01:09:02;;;;;;;8.68;4.03;;;;;;;0.26;96.05;99034.66;5047013;28;20037;-72
2022/02/23 01:11:28;;;;;;;7.63;3.75;;;;;;;0.29;96.21;99044.09;5065180;28;20025;-72
2022/02/23 01:13:53;;;;;;;7.40;3.63;;;;;;;0.24;96.08;99049.09;5065131;28;20052;-73
2022/02/23 01:16:19;;;;;;;6.72;3.72;;;;;;;0.19;95.86;99048.22;5064868;28;20029;-73
2022/02/23 01:18:45;;;;;;;9.45;4.30;;;;;;;0.12;95.73;99047.28;5065163;28;20326;-72
2022/02/23 01:21:10;;;;;;;8.65;4.65;;;;;;;0.11;95.78;99054.06;5047054;28;20060;-72
2022/02/23 01:23:36;;;;;;;9.13;4.68;;;;;;;0.11;95.92;99071.94;5064195;28;20108;-73
2022/02/23 01:26:02;;;;;;;10.88;4.63;;;;;;;0.06;95.91;99059.97;5064938;28;20071;-73
2022/02/23 01:28:28;;;;;;;8.13;4.25;;;;;;;0.11;96.05;99081.31;5064759;28;20090;-73
2022/02/23 01:30:53;;;;;;;11.10;4.25;;;;;;;0.13;95.98;99106.84;5064535;28;20025;-72
2022/02/23 01:33:19;;;;;;;9.25;4.32;;;;;;;0.13;96.04;99105.13;5064675;28;20025;-72
2022/02/23 01:35:44;;;;;;;9.48;4.43;;;;;;;0.10;96.11;99110.19;5064216;28;20489;-72
2022/02/23 01:38:09;;;;;;;12.18;4.55;;;;;;;0.11;96.24;99109.38;5064459;28;20029;-72
2022/02/23 01:40:35;;;;;;;7.00;4.00;;;;;;;0.19;96.20;99123.06;5064512;28;20025;-72
2022/02/23 01:43:01;;;;;;;8.30;4.47;;;;;;;0.22;96.20;99133.31;5064393;28;20112;-72
2022/02/23 01:45:26;;;;;;;11.10;4.70;;;;;;;0.17;95.97;99129.00;5064200;28;20153;-72
2022/02/23 01:47:51;;;;;;;10.20;4.88;;;;;;;0.23;96.28;99144.41;5064436;28;20048;-72
2022/02/23 01:50:17;;;;;;;12.50;4.85;;;;;;;0.26;96.17;99156.38;5064388;28;20052;-72
2022/02/23 01:52:43;;;;;;;9.75;3.72;;;;;;;0.27;96.20;99152.97;5064491;28;20025;-71
2022/02/23 01:55:09;;;;;;;8.23;4.18;;;;;;;0.26;96.34;99157.22;5064419;28;20032;-71
2022/02/23 01:57:35;;;;;;;7.85;4.32;;;;;;;0.30;96.31;99166.63;5064246;28;20077;-72
2022/02/23 02:00:01;;;;;;;7.35;3.97;;;;;;;0.32;96.26;99187.91;5064017;28;20036;-71
2022/02/23 02:02:26;;;;;;;8.32;4.13;;;;;;;0.32;96.29;99187.91;5064091;28;20029;-71
2022/02/23 02:04:52;;;;;;;9.20;4.45;;;;;;;0.32;96.31;99193.03;5064147;28;20031;-71
2022/02/23 02:07:17;;;;;;;7.78;4.20;;;;;;;0.30;96.57;99191.31;5064158;28;20021;-72
2022/02/23 02:09:43;;;;;;;5.97;3.13;;;;;;;0.35;96.29;99212.66;5063831;28;20025;-71
2022/02/23 02:12:09;;;;;;;5.50;2.83;;;;;;;0.35;96.21;99213.50;5064116;28;20498;-71
2022/02/23 02:14:34;;;;;;;6.35;3.17;;;;;;;0.36;96.11;99220.34;5064197;28;20060;-71
2022/02/23 02:17:00;;;;;;;6.05;3.10;;;;;;;0.32;96.10;99222.84;5045674;28;20051;-70
2022/02/23 02:19:25;;;;;;;5.10;3.40;;;;;;;0.30;96.17;99217.69;5045834;28;20040;-71
2022/02/23 02:22:02;;;;;;;8.60;3.42;;;;;;;0.29;96.14;99233.00;5063916;28;20059;-71
2022/02/23 02:24:31;;;;;;;8.10;4.15;;;;;;;0.26;96.11;99238.06;5063814;28;20028;-72
2022/02/23 02:26:58;;;;;;;8.68;4.20;;;;;;;0.31;96.23;99250.03;5063835;28;20479;-72
2022/02/23 02:29:23;;;;;;;9.70;3.78;;;;;;;0.28;96.26;99255.09;5045716;28;20028;-72
2022/02/23 02:31:49;;;;;;;8.32;4.80;;;;;;;0.32;96.25;99271.34;5063374;28;20017;-72
2022/02/23 02:34:15;;;;;;;7.50;4.13;;;;;;;0.32;96.17;99276.44;5062851;28;20028;-70
2022/02/23 02:36:42;;;;;;;7.68;3.92;;;;;;;0.31;96.12;99282.38;5063428;28;20033;-70
2022/02/23 02:39:07;;;;;;;9.35;4.13;;;;;;;0.26;96.11;99287.41;5063369;28;20040;-70
2022/02/23 02:41:34;;;;;;;8.40;4.03;;;;;;;0.30;96.07;99295.97;5063521;28;20017;-71
2022/02/23 02:44:00;;;;;;;9.13;4.15;;;;;;;0.23;95.95;99292.47;5063735;28;20020;-72
2022/02/23 02:46:25;;;;;;;10.88;4.82;;;;;;;0.27;96.08;99307.00;5063328;28;20023;-69
2022/02/23 02:48:50;;;;;;;8.65;4.85;;;;;;;0.23;96.08;99306.09;5063306;28;20582;-70
2022/02/23 02:51:16;;;;;;;9.73;4.20;;;;;;;0.23;96.12;99311.22;5063385;28;20021;-70
2022/02/23 02:53:41;;;;;;;8.13;4.22;;;;;;;0.24;96.08;99322.25;5063269;28;20033;-70
2022/02/23 02:56:07;;;;;;;10.68;3.70;;;;;;;0.27;96.41;99326.56;5062462;28;20081;-70
2022/02/23 02:58:32;;;;;;;7.20;3.20;;;;;;;0.26;96.21;99338.47;5063282;28;20257;-70
2022/02/23 03:00:57;;;;;;;4.95;2.92;;;;;;;0.23;96.27;99336.72;5063023;28;20080;-70
2022/02/23 03:03:23;;;;;;;8.88;3.20;;;;;;;0.29;96.32;99350.44;5063080;28;20016;-69
2022/02/23 03:05:48;;;;;;;4.65;2.88;;;;;;;0.27;96.66;99347.88;5063281;28;20029;-70
2022/02/23 03:08:15;;;;;;;5.15;2.63;;;;;;;0.33;96.49;99357.31;5063108;28;20040;-70
2022/02/23 03:10:43;;;;;;;5.07;3.00;;;;;;;0.27;96.27;99345.31;5063034;28;20025;-70
2022/02/23 03:13:09;;;;;;;4.65;2.42;;;;;;;0.31;96.45;99362.38;5062933;28;20021;-69
2022/02/23 03:15:35;;;;;;;5.13;2.63;;;;;;;0.32;96.36;99366.66;5062614;28;20047;-70
2022/02/23 03:18:00;;;;;;;7.82;2.35;;;;;;;0.31;96.56;99364.94;5062933;28;20029;-70
2022/02/23 03:20:26;;;;;;;5.38;2.80;;;;;;;0.31;96.43;99371.72;5044979;28;20025;-71
2022/02/23 03:22:51;;;;;;;7.10;2.92;;;;;;;0.30;96.52;99380.22;5062985;28;20059;-70
2022/02/23 03:25:16;;;;;;;5.60;2.83;;;;;;;0.33;96.54;99385.38;5062949;28;20029;-71
2022/02/23 03:27:42;;;;;;;6.72;3.00;;;;;;;0.32;96.75;99387.06;5063018;28;20101;-71
2022/02/23 03:30:08;;;;;;;5.43;2.75;;;;;;;0.40;96.69;99396.56;5044613;28;20029;-72
2022/02/23 03:32:33;;;;;;;5.00;2.53;;;;;;;0.40;96.76;99404.22;5045075;28;20025;-71
2022/02/23 03:34:59;;;;;;;5.47;2.80;;;;;;;0.45;96.87;99407.69;5062742;28;20111;-70
2022/02/23 03:37:24;;;;;;;6.57;2.45;;;;;;;0.49;96.72;99428.25;5063082;28;20036;-70
2022/02/23 03:39:50;;;;;;;7.13;2.70;;;;;;;0.49;96.65;99429.94;5062814;28;20431;-70
2022/02/23 03:42:16;;;;;;;4.20;2.80;;;;;;;0.49;96.83;99435.03;5062908;28;20114;-71
2022/02/23 03:44:41;;;;;;;10.10;3.38;;;;;;;0.56;96.75;99451.31;5063106;28;20024;-71
2022/02/23 03:47:07;;;;;;;7.78;2.65;;;;;;;0.58;96.72;99452.19;5065959;28;20436;-70
2022/02/23 03:49:32;;;;;;;8.10;3.25;;;;;;;0.60;96.80;99466.72;5067104;28;20028;-71
2022/02/23 03:51:58;;;;;;;10.45;3.90;;;;;;;0.59;96.87;99461.59;5049449;28;20242;-71
2022/02/23 03:54:23;;;;;;;8.38;3.38;;;;;;;0.64;96.79;99474.44;5066799;28;20032;-70
2022/02/23 03:56:48;;;;;;;7.57;3.55;;;;;;;0.65;96.80;99469.38;5066579;28;20029;-69
2022/02/23 03:59:14;;;;;;;6.80;3.95;;;;;;;0.67;96.88;99477.88;5066632;28;20020;-70
2022/02/23 04:01:42;;;;;;;7.35;3.13;;;;;;;0.69;96.96;99483.03;5066356;28;20021;-70
2022/02/23 04:04:09;;;;;;;6.47;3.53;;;;;;;0.63;96.93;99472.72;5048662;28;20078;-75
2022/02/23 04:06:37;;;;;;;10.95;3.70;;;;;;;0.71;96.93;99491.59;5066382;28;20032;-70
2022/02/23 04:09:05;;;;;;;8.27;3.90;;;;;;;0.71;97.04;99500.13;5065891;28;20472;-70
2022/02/23 04:11:31;;;;;;;15.30;4.40;;;;;;;0.74;97.07;99506.97;5066378;28;20025;-70
2022/02/23 04:13:56;;;;;;;7.25;3.70;;;;;;;0.70;96.81;99506.03;5066199;28;20031;-69
2022/02/23 04:16:22;;;;;;;10.48;3.92;;;;;;;0.77;96.91;99516.41;5066115;28;20024;-69
2022/02/23 04:18:47;;;;;;;8.52;4.22;;;;;;;0.78;96.85;99513.00;5048224;28;20021;-70
2022/02/23 04:21:13;;;;;;;12.60;4.32;;;;;;;0.79;96.93;99518.13;5065953;28;20025;-70
2022/02/23 04:23:38;;;;;;;16.30;4.60;;;;;;;0.82;96.99;99532.66;5066240;28;20040;-71
2022/02/23 04:26:05;;;;;;;9.23;4.75;;;;;;;0.81;96.81;99533.50;5066029;28;20483;-71
2022/02/23 04:28:31;;;;;;;8.95;3.83;;;;;;;0.81;96.81;99533.50;5066037;28;20033;-70
2022/02/23 04:30:57;;;;;;;10.45;4.43;;;;;;;0.81;96.73;99538.59;5047595;28;20029;-69
2022/02/23 04:33:23;;;;;;;10.00;5.03;;;;;;;0.78;96.68;99543.66;5065933;28;20252;-69
2022/02/23 04:35:48;;;;;;;10.68;4.93;;;;;;;0.81;96.71;99548.81;5065331;28;20049;-69
2022/02/23 04:38:15;;;;;;;10.73;4.82;;;;;;;0.79;96.68;99547.94;5065806;28;20032;-69
2022/02/23 04:40:43;;;;;;;14.93;5.07;;;;;;;0.76;96.81;99547.88;5065592;28;20025;-69
2022/02/23 04:43:13;;;;;;;12.18;5.13;;;;;;;0.84;96.95;99554.84;5065550;28;20024;-69
2022/02/23 04:45:39;;;;;;;13.10;5.10;;;;;;;0.87;97.00;99548.94;5047359;28;20025;-70
2022/02/23 04:48:05;;;;;;;13.27;5.50;;;;;;;0.86;97.18;99555.72;5065756;28;20076;-70
2022/02/23 04:50:30;;;;;;;11.23;4.93;;;;;;;0.87;96.93;99551.47;5065608;28;20371;-70
2022/02/23 04:52:55;;;;;;;14.98;6.38;;;;;;;0.88;97.08;99571.09;5065656;28;20130;-70
2022/02/23 04:55:21;;;;;;;14.07;5.38;;;;;;;0.86;96.97;99576.16;5065627;28;20029;-70
2022/02/23 04:57:46;;;;;;;18.73;5.88;;;;;;;0.83;96.91;99578.66;5064605;28;20073;-70
2022/02/23 05:00:13;;;;;;;18.45;5.57;;;;;;;0.85;97.01;99573.59;5065459;28;20033;-70
2022/02/23 05:02:38;;;;;;;15.63;6.35;;;;;;;0.72;96.82;99568.25;5065271;28;20116;-70
2022/02/23 05:05:04;;;;;;;14.95;5.43;;;;;;;0.84;96.84;99592.31;5065129;28;20192;-71
2022/02/23 05:07:29;;;;;;;14.80;5.25;;;;;;;0.78;96.81;99584.53;5065158;28;20017;-73
2022/02/23 05:09:56;;;;;;;17.60;6.05;;;;;;;0.82;96.95;99593.97;5047075;28;20017;-72
2022/02/23 05:12:22;;;;;;;15.68;5.95;;;;;;;0.88;96.98;99600.91;5065380;28;20025;-73
2022/02/23 05:14:47;;;;;;;14.77;5.78;;;;;;;0.88;96.98;99599.19;5047107;28;20020;-73
2022/02/23 05:17:14;;;;;;;14.35;5.35;;;;;;;0.90;96.97;99601.78;5047170;28;20326;-70
2022/02/23 05:19:40;;;;;;;15.23;5.90;;;;;;;0.91;96.93;99601.81;5064865;28;20025;-68
2022/02/23 05:22:06;;;;;;;16.65;5.65;;;;;;;0.92;97.11;99603.56;5065081;28;20120;-69
2022/02/23 05:24:33;;;;;;;18.55;6.28;;;;;;;0.97;97.23;99612.16;5065232;28;20061;-70
2022/02/23 05:26:59;;;;;;;13.68;5.38;;;;;;;1.02;97.26;99613.94;5064811;28;20021;-70
2022/02/23 05:29:25;;;;;;;11.82;5.63;;;;;;;1.10;97.33;99622.59;5064728;28;20063;-70
2022/02/23 05:31:52;;;;;;;12.65;5.68;;;;;;;1.06;97.33;99608.91;5064757;28;20047;-70
2022/02/23 05:34:17;;;;;;;14.70;5.50;;;;;;;1.11;97.21;99616.66;5064727;28;20084;-70
2022/02/23 05:36:43;;;;;;;14.70;5.32;;;;;;;1.10;97.03;99620.88;5064578;28;20065;-70
2022/02/23 05:39:08;;;;;;;21.30;5.60;;;;;;;1.16;97.30;99627.81;5064616;28;20044;-70
2022/02/23 05:41:34;;;;;;;13.63;4.82;;;;;;;1.20;97.39;99631.28;5064539;28;20024;-69
2022/02/23 05:43:59;;;;;;;13.15;6.07;;;;;;;1.24;97.33;99645.84;5064224;28;20040;-69
2022/02/23 05:46:24;;;;;;;17.98;5.78;;;;;;;1.06;97.39;99616.56;5064326;28;20028;-69
2022/02/23 05:48:50;;;;;;;7.03;3.17;;;;;;;1.22;97.18;99655.19;5064466;28;20536;-69
2022/02/23 05:51:33;;;;;;;24.48;4.82;;;;;;;1.22;97.24;99662.84;5064193;28;20074;-69
2022/02/23 05:54:00;;;;;;;16.80;4.63;;;;;;;1.20;96.92;99649.19;5064421;28;20531;-70
2022/02/23 05:56:26;;;;;;;22.25;6.15;;;;;;;1.28;97.29;99668.09;5063993;28;20029;-69
2022/02/23 05:58:52;;;;;;;21.42;4.55;;;;;;;1.29;97.31;99680.06;5064255;28;20061;-69
2022/02/23 06:01:17;;;;;;;21.63;5.13;;;;;;;1.29;97.34;99682.59;5062992;28;20032;-69
2022/02/23 06:03:43;;;;;;;13.80;4.32;;;;;;;1.28;97.29;99682.59;5064223;28;20032;-69
2022/02/23 06:06:08;;;;;;;18.77;3.78;;;;;;;1.25;97.19;99692.75;5064346;28;20051;-69
2022/02/23 06:08:34;;;;;;;23.63;5.78;;;;;;;1.18;97.17;99697.72;5064008;28;20116;-69
2022/02/23 06:10:59;;;;;;;14.40;2.80;;;;;;;1.05;97.31;99683.88;5063665;28;20523;-69
2022/02/23 06:13:25;;;;;;;13.85;3.58;;;;;;;1.03;97.39;99690.66;5064201;28;20052;-69
2022/02/23 06:15:50;;;;;;;19.85;6.05;;;;;;;1.16;97.25;99719.00;5063875;28;20044;-70
2022/02/23 06:18:16;;;;;;;16.80;3.67;;;;;;;1.09;97.37;99695.88;5046078;28;20024;-69
2022/02/23 06:20:41;;;;;;;21.63;3.55;;;;;;;1.05;97.64;99700.91;5063895;28;20470;-68
2022/02/23 06:23:06;;;;;;;15.10;4.45;;;;;;;1.21;97.46;99727.63;5046007;28;20025;-68
2022/02/23 06:25:32;;;;;;;17.77;3.45;;;;;;;1.21;97.53;99722.53;5063720;28;20051;-68
2022/02/23 06:27:58;;;;;;;21.35;4.15;;;;;;;1.27;97.74;99735.41;5063571;28;20044;-69
2022/02/23 06:30:23;;;;;;;20.83;2.97;;;;;;;1.30;97.50;99742.28;5045513;28;20036;-68
2022/02/23 06:32:49;;;;;;;29.33;3.88;;;;;;;1.15;97.69;99707.91;5063038;28;20051;-68
2022/02/23 06:35:14;;;;;;;24.00;3.67;;;;;;;1.37;97.77;99751.81;5063305;28;20051;-69
2022/02/23 06:37:39;;;;;;;26.23;3.85;;;;;;;1.40;97.85;99756.09;5063615;28;20025;-69
2022/02/23 06:40:06;;;;;;;25.92;3.50;;;;;;;1.41;97.81;99750.13;5063326;28;20033;-69
2022/02/23 06:42:32;;;;;;;23.45;3.90;;;;;;;1.42;97.74;99754.44;5045512;28;20032;-68
2022/02/23 06:44:57;;;;;;;23.10;4.30;;;;;;;1.44;97.75;99748.50;5063607;28;20021;-69
2022/02/23 06:47:23;;;;;;;21.52;3.17;;;;;;;1.47;97.93;99750.28;5045274;28;20032;-69
2022/02/23 06:49:49;;;;;;;19.60;3.92;;;;;;;1.50;98.00;99746.91;5045308;28;20024;-68
2022/02/23 06:52:18;;;;;;;28.63;5.15;;;;;;;1.56;98.05;99755.56;5063398;28;20027;-69
2022/02/23 06:54:43;;;;;;;25.73;5.22;;;;;;;1.66;98.15;99766.78;5063442;28;20086;-69
2022/02/23 06:57:09;;;;;;;34.38;4.60;;;;;;;1.70;98.00;99763.47;5063321;28;20029;-69
2022/02/23 06:59:37;;;;;;;27.50;3.80;;;;;;;1.70;98.04;99747.25;5063411;28;20093;-69
2022/02/23 07:02:02;;;;;;;30.88;4.28;;;;;;;1.73;98.31;99755.84;5063090;28;20035;-69
2022/02/23 07:04:28;;;;;;;44.63;5.60;;;;;;;1.91;98.13;99782.59;5063633;28;20024;-70
2022/02/23 07:06:53;;;;;;;39.22;5.97;;;;;;;1.97;98.23;99795.50;5063454;28;20047;-69
2022/02/23 07:09:18;;;;;;;55.67;8.90;;;;;;;2.08;98.21;99794.81;5062934;28;20079;-69
2022/02/23 07:11:44;;;;;;;13.20;3.30;;;;;;;2.25;98.68;99792.53;5063544;28;20025;-68
2022/02/23 07:14:09;;;;;;;33.67;5.13;;;;;;;2.60;98.74;99799.88;5063081;28;20063;-69
2022/02/23 07:16:35;;;;;;;25.70;3.10;;;;;;;2.91;98.77;99799.44;5062731;28;20103;-70
2022/02/23 07:19:01;;;;;;;32.63;5.10;;;;;;;3.17;98.50;99808.31;5062692;28;20075;-69
2022/02/23 07:21:26;;;;;;;22.70;4.68;;;;;;;3.40;98.47;99813.72;5046443;28;20033;-70
2022/02/23 07:23:52;;;;;;;24.13;4.28;;;;;;;3.66;98.39;99825.13;5048720;28;20032;-70
2022/02/23 07:26:17;;;;;;;32.58;5.68;;;;;;;3.86;98.08;99830.47;5066731;28;20032;-70
2022/02/23 07:28:46;;;;;;;27.83;3.80;;;;;;;4.01;97.87;99818.63;5066775;28;20020;-70
2022/02/23 07:31:13;;;;;;;38.15;8.73;;;;;;;4.10;97.87;99821.25;5048261;28;20024;-70
2022/02/23 07:33:40;;;;;;;35.50;5.10;;;;;;;4.27;98.04;99828.22;5048633;28;20021;-70
2022/02/23 07:36:06;;;;;;;27.40;3.90;;;;;;;4.32;97.80;99826.56;5066326;28;20048;-70
2022/02/23 07:38:32;;;;;;;23.75;5.32;;;;;;;4.42;97.87;99835.22;5048433;28;20017;-70
2022/02/23 07:40:57;;;;;;;28.08;4.72;;;;;;;4.46;97.74;99829.22;5066237;28;20387;-70
2022/02/23 07:43:23;;;;;;;24.48;4.32;;;;;;;4.51;97.50;99842.13;5065227;28;20090;-71
2022/02/23 07:45:49;;;;;;;18.27;2.97;;;;;;;4.57;97.28;99845.59;5066122;28;20068;-69
2022/02/23 07:48:15;;;;;;;17.75;3.42;;;;;;;4.62;97.52;99842.22;5066290;28;20028;-70
2022/02/23 07:50:41;;;;;;;20.80;4.47;;;;;;;4.81;97.50;99856.03;5066144;28;20029;-70
2022/02/23 07:53:06;;;;;;;27.58;5.15;;;;;;;4.90;97.58;99856.13;5048193;28;20029;-69
2022/02/23 07:55:32;;;;;;;17.63;3.67;;;;;;;4.95;97.50;99880.13;5066187;28;20055;-69
2022/02/23 07:57:58;;;;;;;26.63;4.13;;;;;;;4.96;97.33;99875.84;5066069;28;20030;-70
2022/02/23 08:00:24;;;;;;;21.17;3.80;;;;;;;4.95;96.61;99884.44;5048227;28;20024;-69
2022/02/23 08:02:49;;;;;;;33.33;4.32;;;;;;;4.88;96.44;99878.38;5066041;28;20017;-68
2022/02/23 08:05:15;;;;;;;34.45;4.03;;;;;;;5.00;96.98;99893.03;5066047;28;20027;-69
2022/02/23 08:07:41;;;;;;;31.27;5.03;;;;;;;5.09;97.09;99897.38;5065967;28;20041;-69
2022/02/23 08:10:06;;;;;;;29.20;4.43;;;;;;;5.19;97.29;99908.59;5065759;28;20032;-68
2022/02/23 08:12:32;;;;;;;31.80;4.32;;;;;;;5.35;97.46;99924.13;5065802;28;20460;-68
2022/02/23 08:19:30;;;;;;;23.45;5.13;;;;;;;5.60;97.51;99925.09;5065836;28;20139;-68
2022/02/23 08:20:27;;;;;;;33.08;5.18;;;;;;;6.08;95.41;99929.59;5065770;28;20461;-68
2022/02/23 08:22:52;;;;;;;28.45;4.55;;;;;;;6.24;93.99;99933.06;5065714;28;20040;-68
2022/02/23 08:25:17;;;;;;;11.77;1.55;;;;;;;6.42;92.88;99952.00;5065699;28;20029;-68
2022/02/23 08:27:44;;;;;;;0.30;0.30;;;;;;;6.64;92.56;99946.84;5065928;28;20025;-69
2022/02/23 08:30:11;;;;;;;0.40;0.40;;;;;;;6.77;91.97;99948.53;5065726;28;20028;-69
2022/02/23 08:32:37;;;;;;;0.32;0.32;;;;;;;6.97;91.79;99959.72;5045924;28;20028;-69
2022/02/23 08:35:02;;;;;;;0.30;0.30;;;;;;;7.06;90.51;99976.06;5065399;28;20025;-69
2022/02/23 08:37:28;;;;;;;0.30;0.30;;;;;;;7.22;90.56;99980.38;5065450;28;20040;-69
2022/02/23 08:39:53;;;;;;;0.30;0.30;;;;;;;7.29;90.42;99957.13;5047315;28;20024;-68
2022/02/23 08:42:19;;;;;;;0.30;0.30;;;;;;;7.53;89.26;99975.13;5065611;28;20060;-69
2022/02/23 08:44:44;;;;;;;0.30;0.30;;;;;;;7.46;88.49;99988.94;5065423;28;20048;-69
2022/02/23 08:47:11;;;;;;;0.30;0.30;;;;;;;7.39;87.46;99985.50;5065145;28;20098;-69
2022/02/23 08:49:37;;;;;;;0.30;0.30;;;;;;;7.48;87.30;100003.56;5065256;28;20025;-68
2022/02/23 08:52:03;;;;;;;0.30;0.30;;;;;;;7.59;86.69;100008.69;5065420;28;20469;-69
2022/02/23 08:54:28;;;;;;;0.30;0.30;;;;;;;7.55;86.11;100005.28;5065113;28;20067;-69
2022/02/23 08:56:54;;;;;;;0.40;0.40;;;;;;;7.62;86.86;99994.91;5065081;28;20029;-69
2022/02/23 08:59:19;;;;;;;0.30;0.30;;;;;;;7.69;86.36;100006.94;5064987;28;20040;-67
2022/02/23 09:01:45;;;;;;;0.40;0.40;;;;;;;7.91;86.27;100010.31;5064897;28;20021;-69
2022/02/23 09:04:11;;;;;;;0.40;0.40;;;;;;;8.13;85.63;100010.22;5065081;28;20017;-68
2022/02/23 09:06:39;;;;;;;17.52;4.35;;;;;;;8.26;85.22;100016.19;5046851;28;20221;-68
2022/02/23 09:09:08;;;;;;;0.30;0.30;;;;;;;8.24;84.58;100009.31;5064903;28;20021;-69
2022/02/23 09:11:33;;;;;;;0.30;0.30;;;;;;;8.24;85.22;100017.91;5064890;28;20029;-68
2022/02/23 09:13:59;;;;;;;0.30;0.30;;;;;;;8.35;85.82;100015.31;5064863;28;20071;-67
2022/02/23 09:16:27;;;;;;;0.30;0.30;;;;;;;8.43;85.34;100021.25;5064702;28;20021;-67
2022/02/23 09:18:55;;;;;;;0.30;0.30;;;;;;;8.48;84.82;100036.75;5064695;28;20036;-68
2022/02/23 09:21:20;;;;;;;0.30;0.30;;;;;;;8.47;84.76;100047.97;5064744;28;20028;-66
2022/02/23 09:23:46;;;;;;;0.30;0.30;;;;;;;8.48;85.67;100049.69;5064733;28;20249;-67
2022/02/23 09:26:11;;;;;;;0.28;0.28;;;;;;;8.41;85.32;100048.03;5064735;28;20025;-67
2022/02/23 09:28:37;;;;;;;0.30;0.30;;;;;;;8.21;85.61;100053.28;5064669;28;20047;-68
2022/02/23 09:31:06;;;;;;;0.30;0.30;;;;;;;8.03;85.95;100061.13;5064363;28;20023;-67
2022/02/23 09:33:32;;;;;;;0.30;0.30;;;;;;;7.94;86.51;100053.38;5064673;28;20028;-68
2022/02/23 09:36:01;;;;;;;0.40;0.40;;;;;;;7.92;86.80;100061.13;5064256;28;20048;-68
2022/02/23 09:38:26;;;;;;;0.40;0.40;;;;;;;7.90;87.38;100067.19;5064742;28;20028;-68
2022/02/23 09:40:52;;;;;;;0.40;0.40;;;;;;;7.99;87.56;100068.88;5064364;28;20407;-68
2022/02/23 09:43:18;;;;;;;0.30;0.30;;;;;;;8.10;88.43;100080.03;5045555;28;20021;-68
2022/02/23 09:45:49;;;;;;;0.30;0.30;;;;;;;8.01;87.23;100069.72;5063164;28;20017;-68
2022/02/23 09:48:14;;;;;;;0.30;0.30;;;;;;;7.87;88.11;100060.31;5064205;28;20531;-69
2022/02/23 09:50:40;;;;;;;0.30;0.30;;;;;;;7.83;88.69;100079.25;5046171;28;20029;-69
2022/02/23 09:53:06;;;;;;;0.38;0.38;;;;;;;7.75;88.99;100079.28;5064099;28;20031;-69
2022/02/23 09:55:32;;;;;;;0.30;0.30;;;;;;;7.66;89.65;100074.13;5063907;28;20088;-69
2022/02/23 09:57:57;;;;;;;0.30;0.30;;;;;;;7.68;90.14;100083.59;5064070;28;20017;-70
2022/02/23 10:00:23;;;;;;;0.40;0.40;;;;;;;7.71;90.49;100067.25;5064057;28;20083;-69
2022/02/23 10:02:51;;;;;;;0.40;0.40;;;;;;;7.66;90.38;100085.34;5063825;28;20032;-69
2022/02/23 10:05:17;;;;;;;0.40;0.40;;;;;;;7.65;90.89;100080.16;5064214;28;20108;-69
2022/02/23 10:07:43;;;;;;;0.30;0.30;;;;;;;7.67;91.11;100092.22;5063957;28;20017;-70
2022/02/23 10:10:11;;;;;;;0.50;0.50;;;;;;;7.71;90.67;100084.47;5063674;28;20055;-70
2022/02/23 10:12:38;;;;;;;0.40;0.40;;;;;;;7.80;90.78;100087.03;5063928;28;20076;-69
2022/02/23 10:15:08;;;;;;;0.30;0.30;;;;;;;7.92;90.42;100093.91;5063670;28;20512;-69
2022/02/23 10:17:48;;;;;;;0.40;0.40;;;;;;;8.12;90.78;100086.06;5063378;28;20163;-70
2022/02/23 10:20:21;;;;;;;0.40;0.40;;;;;;;8.25;90.64;100097.25;5063449;28;20343;-69
2022/02/23 10:22:47;;;;;;;0.38;0.38;;;;;;;8.47;90.21;100104.03;5045390;28;20503;-69
2022/02/23 10:25:12;;;;;;;0.30;0.30;;;;;;;8.63;89.62;100107.44;5063526;28;20029;-69
2022/02/23 10:27:38;;;;;;;0.35;0.35;;;;;;;8.84;89.11;100118.53;5063506;28;20017;-69
2022/02/23 10:30:05;;;;;;;0.30;0.30;;;;;;;8.86;88.54;100117.69;5045432;28;20088;-69
2022/02/23 10:32:30;;;;;;;0.32;0.32;;;;;;;8.88;88.32;100115.91;5063287;28;20457;-69
2022/02/23 10:34:59;;;;;;;0.30;0.30;;;;;;;9.01;88.12;100121.06;5063080;28;20052;-68
2022/02/23 10:37:26;;;;;;;0.40;0.40;;;;;;;8.81;87.60;100124.59;5063404;28;20036;-68
2022/02/23 10:39:53;;;;;;;0.32;0.32;;;;;;;8.75;87.92;100143.63;5063174;28;20031;-68
2022/02/23 10:42:26;;;;;;;0.40;0.40;;;;;;;8.57;88.17;100136.81;5063228;28;20021;-68
2022/02/23 10:44:54;;;;;;;0.40;0.40;;;;;;;8.27;87.86;100144.66;5063276;28;20029;-69
2022/02/23 10:47:36;;;;;;;0.30;0.30;;;;;;;8.04;87.87;100152.44;5044648;28;20576;-70
2022/02/23 10:50:08;;;;;;;0.40;0.40;;;;;;;7.92;88.49;100143.84;5045025;28;20040;-69
2022/02/23 10:52:35;;;;;;;;;;;;;;;7.99;87.86;100159.34;5063637;28;20024;-69
2022/02/23 10:55:14;;;;;;;0.55;0.55;;;;;;;8.05;88.00;100157.63;5044741;28;19966;-71
2022/02/23 10:58:00;;;;;;;0.40;0.40;;;;;;;7.97;87.82;100130.06;5063066;28;20585;-70
2022/02/23 11:00:35;;;;;;;0.40;0.40;;;;;;;8.26;87.74;100152.41;5062984;28;20040;-70
2022/02/23 11:03:01;;;;;;;0.40;0.40;;;;;;;8.49;87.18;100149.75;5062799;28;20088;-70
2022/02/23 11:05:27;;;;;;;0.38;0.38;;;;;;;8.82;86.06;100159.13;5063256;28;20021;-70
2022/02/23 11:07:55;;;;;;;0.40;0.40;;;;;;;9.11;84.78;100158.94;5063314;28;20031;-70
2022/02/23 11:10:21;;;;;;;0.30;0.30;;;;;;;9.46;84.12;100156.97;5044954;28;20088;-70
2022/02/23 11:12:53;;;;;;;0.40;0.40;;;;;;;9.71;83.64;100176.66;5063132;28;20075;-71
2022/02/23 11:15:21;;;;;;;0.50;0.50;;;;;;;9.89;83.27;100154.88;5063264;28;20025;-70
2022/02/23 11:17:52;;;;;;;0.30;0.30;;;;;;;9.99;82.68;100160.84;5062754;28;20029;-70
2022/02/23 11:20:21;;;;;;;0.27;0.27;;;;;;;10.12;81.51;100165.03;5062777;28;20048;-71
2022/02/23 11:22:56;;;;;;;0.40;0.40;;;;;;;10.37;80.76;100169.06;5062821;28;20262;-70
2022/02/23 11:25:23;;;;;;;0.40;0.40;;;;;;;10.61;79.68;100174.88;5063145;28;20028;-71
2022/02/23 11:27:53;;;;;;;0.40;0.40;;;;;;;10.92;78.89;100179.69;5062974;28;20024;-71
2022/02/23 11:30:20;;;;;;;0.40;0.40;;;;;;;11.21;77.72;100180.16;5062780;28;20025;-72
2022/02/23 11:32:46;;;;;;;0.40;0.40;;;;;;;11.48;77.32;100173.69;5062555;28;20025;-72
2022/02/23 11:35:11;;;;;;;0.30;0.30;;;;;;;11.82;76.98;100169.66;5062704;28;20048;-73